createdAt,value
2024-01-28T00:01:39.604Z,25.50
2024-01-28T00:04:07.951Z,23.70
2024-01-28T00:06:35.923Z,18.10
2024-01-28T00:09:03.972Z,14.10
2024-01-28T00:11:32.161Z,22.50
2024-01-28T00:14:01.797Z,19.50
2024-01-28T00:16:29.801Z,24.00
2024-01-28T00:18:59.733Z,22.00
2024-01-28T00:21:27.888Z,24.00
2024-01-28T00:23:56.280Z,27.00
2024-01-28T00:26:24.615Z,25.50
2024-01-28T00:28:52.577Z,28.90
2024-01-28T00:31:21.939Z,30.00
2024-01-28T00:33:49.923Z,39.70
2024-01-28T00:36:17.908Z,39.20
2024-01-28T00:38:45.937Z,45.80
2024-01-28T00:41:21.831Z,39.60
2024-01-28T00:43:50.158Z,40.00
2024-01-28T00:46:18.296Z,46.10
2024-01-28T00:48:47.722Z,48.70
2024-01-28T00:51:16.119Z,56.50
2024-01-28T00:53:44.236Z,51.40
2024-01-28T00:56:14.449Z,46.80
2024-01-28T00:58:42.444Z,46.30
2024-01-28T01:01:10.468Z,46.20
2024-01-28T01:03:38.595Z,47.20
2024-01-28T01:06:08.905Z,46.20
2024-01-28T01:08:37.002Z,43.40
2024-01-28T01:11:06.850Z,36.50
2024-01-28T01:13:35.304Z,31.80
2024-01-28T01:16:03.931Z,33.50
2024-01-28T01:18:32.057Z,33.10
2024-01-28T01:21:00.067Z,33.50
2024-01-28T01:23:30.761Z,40.40
2024-01-28T01:25:58.783Z,44.90
2024-01-28T01:28:33.031Z,48.20
2024-01-28T01:31:01.244Z,48.00
2024-01-28T01:33:29.425Z,48.80
2024-01-28T01:35:57.991Z,45.60
2024-01-28T01:38:25.967Z,42.20
2024-01-28T01:40:55.282Z,43.00
2024-01-28T01:43:24.408Z,43.20
2024-01-28T01:45:53.402Z,46.00
2024-01-28T01:48:22.469Z,50.10
2024-01-28T01:50:50.625Z,45.80
2024-01-28T01:53:18.840Z,43.40
2024-01-28T01:55:46.890Z,42.90
2024-01-28T01:58:16.606Z,46.50
2024-01-28T02:03:20.010Z,52.60
2024-01-28T02:05:48.251Z,49.80
2024-01-28T02:08:17.087Z,48.60
2024-01-28T02:10:45.755Z,52.70
2024-01-28T02:13:14.218Z,52.20
2024-01-28T02:15:47.138Z,50.50
2024-01-28T02:18:15.851Z,53.70
2024-01-28T02:20:44.499Z,54.90
2024-01-28T02:23:18.840Z,53.00
2024-01-28T02:25:46.858Z,48.20
2024-01-28T02:28:15.089Z,48.60
2024-01-28T02:30:43.157Z,48.20
2024-01-28T02:33:10.445Z,47.70
2024-01-28T02:35:38.518Z,54.90
2024-01-28T02:38:06.545Z,55.00
2024-01-28T02:40:35.853Z,54.00
2024-01-28T02:43:05.135Z,55.50
2024-01-28T02:45:33.182Z,59.10
2024-01-28T02:48:01.203Z,61.20
2024-01-28T02:50:29.152Z,58.90
2024-01-28T02:52:57.135Z,51.20
2024-01-28T02:55:25.247Z,54.40
2024-01-28T02:57:54.750Z,51.40
2024-01-28T03:00:22.899Z,48.50
2024-01-28T03:02:50.866Z,51.60
2024-01-28T03:05:18.837Z,51.80
2024-01-28T03:07:46.812Z,51.40
2024-01-28T03:10:14.761Z,58.00
2024-01-28T03:12:42.729Z,57.60
2024-01-28T03:15:12.412Z,54.50
2024-01-28T03:17:40.517Z,62.50
2024-01-28T03:20:09.966Z,65.80
2024-01-28T03:22:37.974Z,65.40
2024-01-28T03:25:06.548Z,63.30
2024-01-28T03:27:34.493Z,60.50
2024-01-28T03:30:02.472Z,58.80
2024-01-28T03:32:31.857Z,55.40
2024-01-28T03:34:59.979Z,52.10
2024-01-28T03:37:28.081Z,53.30
2024-01-28T03:39:56.016Z,54.80
2024-01-28T03:42:25.028Z,56.90
2024-01-28T03:44:53.025Z,59.70
2024-01-28T03:47:20.988Z,58.10
2024-01-28T03:49:50.336Z,63.20
2024-01-28T03:52:18.538Z,71.20
2024-01-28T03:54:46.725Z,79.30
2024-01-28T03:57:14.667Z,85.70
2024-01-28T03:59:42.727Z,83.90
2024-01-28T04:02:10.778Z,79.30
2024-01-28T04:04:38.849Z,74.20
2024-01-28T04:07:08.484Z,80.90
2024-01-28T04:09:36.588Z,80.20
2024-01-28T04:12:05.735Z,80.20
2024-01-28T04:14:33.781Z,77.80
2024-01-28T04:17:01.722Z,75.00
2024-01-28T04:19:29.926Z,70.70
2024-01-28T04:21:57.983Z,69.70
2024-01-28T04:24:27.397Z,66.00
2024-01-28T04:26:56.892Z,67.20
2024-01-28T04:29:24.814Z,66.70
2024-01-28T04:31:54.657Z,68.10
2024-01-28T04:34:23.788Z,70.60
2024-01-28T04:36:51.796Z,64.50
2024-01-28T04:39:19.918Z,60.10
2024-01-28T04:41:49.288Z,61.10
2024-01-28T04:44:17.224Z,61.40
2024-01-28T04:46:46.478Z,60.70
2024-01-28T04:49:14.680Z,61.20
2024-01-28T04:51:43.288Z,60.70
2024-01-28T04:54:11.455Z,59.30
2024-01-28T04:56:39.502Z,64.80
2024-01-28T04:59:08.885Z,64.70
2024-01-28T05:01:36.958Z,68.10
2024-01-28T05:04:05.746Z,66.60
2024-01-28T05:06:37.357Z,65.70
2024-01-28T05:09:05.867Z,69.00
2024-01-28T05:11:34.048Z,68.70
2024-01-28T05:14:01.979Z,63.90
2024-01-28T05:16:31.562Z,65.00
2024-01-28T05:18:59.580Z,64.50
2024-01-28T05:21:27.828Z,63.00
2024-01-28T05:23:55.828Z,64.70
2024-01-28T05:26:23.863Z,65.00
2024-01-28T05:28:51.834Z,61.90
2024-01-28T05:31:19.781Z,59.30
2024-01-28T05:33:49.312Z,59.70
2024-01-28T05:36:17.677Z,59.80
2024-01-28T05:38:46.463Z,66.20
2024-01-28T05:41:15.177Z,70.50
2024-01-28T05:43:43.427Z,68.50
2024-01-28T05:46:11.383Z,65.60
2024-01-28T05:48:39.469Z,64.70
2024-01-28T05:51:08.918Z,68.70
2024-01-28T05:53:36.891Z,71.90
2024-01-28T05:56:07.328Z,71.70
2024-01-28T05:58:35.842Z,71.70
2024-01-28T06:01:07.923Z,71.10
2024-01-28T06:03:36.770Z,68.80
2024-01-28T06:06:04.953Z,63.70
2024-01-28T06:08:34.299Z,62.10
2024-01-28T06:11:02.330Z,63.90
2024-01-28T06:13:30.454Z,66.90
2024-01-28T06:15:58.802Z,65.50
2024-01-28T06:18:26.894Z,71.10
2024-01-28T06:20:55.059Z,73.30
2024-01-28T06:23:23.059Z,71.20
2024-01-28T06:25:52.431Z,72.50
2024-01-28T06:28:20.547Z,75.30
2024-01-28T06:30:48.521Z,76.10
2024-01-28T06:33:17.993Z,79.00
2024-01-28T06:35:45.965Z,78.40
2024-01-28T06:38:14.523Z,74.00
2024-01-28T06:40:42.571Z,70.50
2024-01-28T06:43:14.189Z,71.30
2024-01-28T06:45:43.543Z,73.60
2024-01-28T06:48:11.906Z,76.20
2024-01-28T06:50:40.102Z,77.10
2024-01-28T06:53:08.140Z,81.70
2024-01-28T06:55:36.160Z,85.50
2024-01-28T06:58:04.147Z,85.30
2024-01-28T07:00:34.039Z,85.80
2024-01-28T07:03:02.182Z,85.90
2024-01-28T07:05:30.602Z,77.40
2024-01-28T07:07:58.828Z,77.00
2024-01-28T07:10:29.205Z,78.20
2024-01-28T07:12:57.430Z,79.50
2024-01-28T07:15:25.626Z,78.10
2024-01-28T07:17:55.026Z,76.50
2024-01-28T07:20:23.197Z,78.70
2024-01-28T07:22:51.286Z,80.20
2024-01-28T07:25:19.270Z,81.20
2024-01-28T07:27:48.030Z,81.50
2024-01-28T07:30:16.682Z,84.60
2024-01-28T07:32:45.254Z,83.90
2024-01-28T07:35:15.566Z,84.70
2024-01-28T07:37:43.637Z,83.90
2024-01-28T07:40:12.371Z,83.00
2024-01-28T07:42:40.593Z,83.90
2024-01-28T07:45:11.093Z,84.90
2024-01-28T07:47:43.319Z,85.10
2024-01-28T07:50:12.332Z,83.60
2024-01-28T07:52:42.351Z,84.10
2024-01-28T07:55:10.557Z,85.30
2024-01-28T07:57:38.746Z,84.30
2024-01-28T08:00:08.419Z,80.10
2024-01-28T08:02:36.940Z,81.90
2024-01-28T08:05:05.354Z,80.60
2024-01-28T08:07:33.582Z,78.40
2024-01-28T08:10:03.224Z,78.30
2024-01-28T08:12:31.380Z,74.00
2024-01-28T08:14:59.538Z,78.30
2024-01-28T08:17:27.966Z,78.40
2024-01-28T08:19:56.132Z,76.60
2024-01-28T08:22:25.838Z,75.00
2024-01-28T08:24:55.016Z,71.60
2024-01-28T08:27:24.627Z,71.60
2024-01-28T08:29:53.555Z,68.70
2024-01-28T08:32:21.904Z,62.90
2024-01-28T08:34:52.667Z,66.00
2024-01-28T08:37:22.871Z,64.20
2024-01-28T08:39:51.096Z,59.50
2024-01-28T08:42:20.373Z,53.30
2024-01-28T08:44:49.983Z,53.80
2024-01-28T08:47:18.061Z,51.70
2024-01-28T08:49:46.201Z,46.80
2024-01-28T08:52:14.387Z,47.30
2024-01-28T08:54:45.717Z,44.40
2024-01-28T08:57:14.409Z,38.90
2024-01-28T08:59:42.463Z,39.40
2024-01-28T09:02:12.022Z,36.20
2024-01-28T09:04:40.198Z,30.40
2024-01-28T09:07:08.408Z,28.20
2024-01-28T09:09:36.584Z,27.00
2024-01-28T09:12:06.035Z,23.20
2024-01-28T09:14:34.078Z,21.10
2024-01-28T09:17:02.159Z,20.00
2024-01-28T09:19:31.690Z,19.40
2024-01-28T09:21:59.795Z,38.20
2024-01-28T09:24:27.958Z,36.80
2024-01-28T09:26:56.071Z,21.50
2024-01-28T09:29:24.131Z,13.20
2024-01-28T09:31:52.577Z,20.90
2024-01-28T09:34:20.760Z,21.20
2024-01-28T09:36:50.478Z,14.00
2024-01-28T09:39:19.143Z,7.30
2024-01-28T09:41:51.130Z,1.00
2024-01-28T09:44:19.153Z,21.50
2024-01-28T09:46:47.423Z,1.00
2024-01-28T09:49:15.864Z,14.40
2024-01-28T09:51:44.358Z,11.30
2024-01-28T09:54:14.709Z,51.40
2024-01-28T09:56:44.330Z,1.00
2024-01-28T09:59:15.177Z,1.00
2024-01-28T10:01:44.457Z,1.00
2024-01-28T10:04:12.999Z,1.00
2024-01-28T10:06:41.277Z,1.00
2024-01-28T10:09:10.860Z,1.00
2024-01-28T10:11:40.232Z,3.30
2024-01-28T10:14:10.612Z,1.00
2024-01-28T10:16:39.629Z,32.30
2024-01-28T10:19:08.355Z,1.00
2024-01-28T10:21:36.983Z,1.00
2024-01-28T10:24:05.116Z,2.00
2024-01-28T10:26:36.383Z,1.00
2024-01-28T10:29:10.027Z,41.20
2024-01-28T10:31:38.307Z,46.60
2024-01-28T10:34:06.442Z,86.00
2024-01-28T10:36:35.186Z,84.90
2024-01-28T10:39:05.058Z,87.60
2024-01-28T10:41:34.290Z,79.70
2024-01-28T10:44:04.158Z,80.00
2024-01-28T10:46:36.793Z,80.20
2024-01-28T10:49:05.802Z,78.70
2024-01-28T10:51:34.369Z,70.80
2024-01-28T10:54:03.696Z,70.90
2024-01-28T10:56:32.136Z,67.70
2024-01-28T10:59:00.349Z,60.20
2024-01-28T11:01:28.768Z,59.40
2024-01-28T11:03:59.394Z,57.00
2024-01-28T11:06:27.746Z,56.10
2024-01-28T11:08:56.585Z,52.80
2024-01-28T11:11:24.858Z,48.00
2024-01-28T11:13:52.929Z,46.30
2024-01-28T11:16:21.197Z,42.70
2024-01-28T11:18:58.992Z,42.50
2024-01-28T11:21:27.716Z,40.50
2024-01-28T11:23:57.056Z,39.70
2024-01-28T11:26:26.124Z,38.50
2024-01-28T11:28:55.475Z,36.40
2024-01-28T11:31:24.505Z,36.40
2024-01-28T11:33:53.813Z,35.40
2024-01-28T11:36:27.887Z,34.40
2024-01-28T11:39:05.838Z,34.70
2024-01-28T11:41:38.703Z,33.00
2024-01-28T11:44:08.712Z,33.10
2024-01-28T11:46:36.932Z,32.70
2024-01-28T11:49:06.243Z,32.60
2024-01-28T11:51:36.285Z,32.20
2024-01-28T11:54:04.977Z,31.60
2024-01-28T11:56:33.208Z,30.90
2024-01-28T11:59:01.772Z,30.60
2024-01-28T12:01:29.835Z,30.70
2024-01-28T12:03:58.070Z,30.10
2024-01-28T12:08:56.166Z,28.90
2024-01-28T12:11:25.934Z,29.60
2024-01-28T12:13:53.938Z,29.40
2024-01-28T12:16:23.615Z,29.40
2024-01-28T12:18:54.835Z,29.00
2024-01-28T12:21:23.478Z,28.00
2024-01-28T12:23:54.035Z,28.10
2024-01-28T12:26:23.467Z,27.60
2024-01-28T12:28:52.737Z,27.90
2024-01-28T12:31:21.467Z,28.20
2024-01-28T12:33:50.338Z,28.10
2024-01-28T12:36:18.960Z,27.80
2024-01-28T12:38:46.923Z,27.00
2024-01-28T12:41:14.850Z,27.00
2024-01-28T12:43:51.855Z,24.80
2024-01-28T12:46:21.553Z,27.00
2024-01-28T12:48:49.785Z,27.10
2024-01-28T12:51:18.014Z,27.10
2024-01-28T12:53:46.083Z,28.10
2024-01-28T12:56:15.206Z,28.20
2024-01-28T12:58:45.253Z,27.90
2024-01-28T13:01:13.514Z,29.20
2024-01-28T13:03:41.697Z,29.40
2024-01-28T13:06:09.937Z,30.00
2024-01-28T13:08:38.246Z,30.30
2024-01-28T13:11:07.096Z,30.00
2024-01-28T13:13:37.702Z,29.60
2024-01-28T13:16:07.715Z,29.80
2024-01-28T13:18:36.567Z,28.60
2024-01-28T13:21:06.277Z,27.70
2024-01-28T13:23:35.138Z,27.30
2024-01-28T13:26:03.324Z,27.50
2024-01-28T13:28:31.281Z,27.30
2024-01-28T13:30:59.521Z,27.00
2024-01-28T13:33:29.256Z,26.30
2024-01-28T13:35:57.452Z,26.60
2024-01-28T13:38:25.568Z,26.50
2024-01-28T13:40:53.721Z,27.30
2024-01-28T13:43:21.819Z,27.10
2024-01-28T13:45:49.814Z,27.10
2024-01-28T13:48:18.000Z,27.70
2024-01-28T13:50:47.421Z,27.50
2024-01-28T13:53:15.443Z,27.10
2024-01-28T13:55:43.466Z,27.60
2024-01-28T13:58:11.581Z,27.90
2024-01-28T14:00:39.723Z,27.60
2024-01-28T14:03:07.996Z,27.70
2024-01-28T14:05:38.333Z,27.50
2024-01-28T14:08:09.420Z,27.40
2024-01-28T14:10:37.362Z,27.90
2024-01-28T14:13:05.473Z,28.20
2024-01-28T14:15:33.618Z,28.50
2024-01-28T14:18:01.725Z,29.10
2024-01-28T14:20:29.739Z,30.20
2024-01-28T14:22:57.681Z,30.10
2024-01-28T14:25:27.065Z,31.80
2024-01-28T14:27:55.236Z,33.10
2024-01-28T14:30:23.416Z,34.70
2024-01-28T14:32:51.497Z,35.80
2024-01-28T14:35:19.543Z,37.40
2024-01-28T14:37:49.033Z,37.50
2024-01-28T14:40:17.236Z,38.60
2024-01-28T14:42:46.916Z,39.40
2024-01-28T14:45:15.194Z,40.00
2024-01-28T14:47:44.691Z,40.50
2024-01-28T14:50:12.755Z,41.50
2024-01-28T14:52:40.733Z,42.50
2024-01-28T14:55:09.080Z,43.20
2024-01-28T14:57:37.151Z,44.50
2024-01-28T15:00:07.834Z,45.40
2024-01-28T15:02:35.934Z,46.60
2024-01-28T15:05:06.239Z,48.00
2024-01-28T15:07:34.583Z,48.50
2024-01-28T15:10:04.101Z,49.50
2024-01-28T15:12:32.570Z,49.80
2024-01-28T15:15:00.605Z,50.30
2024-01-28T15:17:30.012Z,51.00
2024-01-28T15:19:58.215Z,51.40
2024-01-28T15:22:28.476Z,52.60
2024-01-28T15:24:59.940Z,52.70
2024-01-28T15:27:28.531Z,53.30
2024-01-28T15:29:56.507Z,53.90
2024-01-28T15:32:24.658Z,54.40
2024-01-28T15:34:54.149Z,55.10
2024-01-28T15:37:22.222Z,55.80
2024-01-28T15:39:50.261Z,56.20
2024-01-28T15:42:18.296Z,56.90
2024-01-28T15:44:46.424Z,57.50
2024-01-28T15:47:14.514Z,58.00
2024-01-28T15:49:43.158Z,58.60
2024-01-28T15:52:14.042Z,59.00
2024-01-28T15:54:42.841Z,59.60
2024-01-28T15:57:11.204Z,60.40
2024-01-28T15:59:40.229Z,61.30
2024-01-28T16:02:08.156Z,60.50
2024-01-28T16:04:36.135Z,49.50
2024-01-28T16:07:04.247Z,49.70
2024-01-28T16:09:39.202Z,50.00
2024-01-28T16:12:13.138Z,51.40
2024-01-28T16:14:41.212Z,51.80
2024-01-28T16:17:09.205Z,52.10
2024-01-28T16:19:37.305Z,52.20
2024-01-28T16:22:05.601Z,51.60
2024-01-28T16:24:35.003Z,51.70
2024-01-28T16:27:03.096Z,49.30
2024-01-28T16:29:33.473Z,45.70
2024-01-28T16:32:01.496Z,39.50
2024-01-28T16:34:29.776Z,30.60
2024-01-28T16:36:57.961Z,18.20
2024-01-28T16:39:25.996Z,1.00
2024-01-28T16:41:55.380Z,1.00
2024-01-28T16:44:23.586Z,1.00
2024-01-28T16:46:51.593Z,1.00
2024-01-28T16:49:21.055Z,1.00
2024-01-28T16:51:49.188Z,1.00
2024-01-28T16:54:17.229Z,1.00
2024-01-28T16:56:45.191Z,1.00
2024-01-28T16:59:14.918Z,1.00
2024-01-28T17:01:44.378Z,1.00
2024-01-28T17:04:12.653Z,1.00
2024-01-28T17:06:41.076Z,99.90
2024-01-28T17:09:09.408Z,1.00
2024-01-28T17:11:37.453Z,1.00
2024-01-28T17:14:05.617Z,1.00
2024-01-28T17:16:34.988Z,1.00
2024-01-28T17:19:02.933Z,1.00
2024-01-28T17:21:31.400Z,1.00
2024-01-28T17:23:59.541Z,99.90
2024-01-28T17:26:27.558Z,1.00
2024-01-28T17:28:57.662Z,1.00
2024-01-28T17:31:28.110Z,1.00
2024-01-28T17:33:57.560Z,1.00
2024-01-28T17:36:27.277Z,99.90
2024-01-28T17:38:55.803Z,1.00
2024-01-28T17:41:23.884Z,99.90
2024-01-28T17:43:52.101Z,99.90
2024-01-28T17:46:20.470Z,1.00
2024-01-28T17:48:48.535Z,99.90
2024-01-28T17:51:17.980Z,99.90
2024-01-28T17:53:46.257Z,1.00
2024-01-28T17:56:14.371Z,1.00
2024-01-28T17:58:42.436Z,99.90
2024-01-28T18:01:10.525Z,99.90
2024-01-28T18:03:39.190Z,99.90
2024-01-28T18:06:07.502Z,99.90
2024-01-28T18:08:36.837Z,99.90
2024-01-28T18:11:05.289Z,99.90
2024-01-28T18:13:33.251Z,99.90
2024-01-28T18:16:01.781Z,99.90
2024-01-28T18:18:29.990Z,99.90
2024-01-28T18:20:58.106Z,99.90
2024-01-28T18:23:26.096Z,99.90
2024-01-28T18:25:55.679Z,99.90
2024-01-28T18:28:25.390Z,99.90
2024-01-28T18:30:53.404Z,99.90
2024-01-28T18:33:21.691Z,99.90
2024-01-28T18:35:52.411Z,99.90
2024-01-28T18:38:20.490Z,99.90
2024-01-28T18:40:48.503Z,99.90
2024-01-28T18:43:17.908Z,99.90
2024-01-28T18:45:45.938Z,99.90
2024-01-28T18:48:18.593Z,99.90
2024-01-28T18:50:52.021Z,99.90
2024-01-28T18:53:20.217Z,99.90
2024-01-28T18:55:48.244Z,99.90
2024-01-28T18:58:17.898Z,99.90
2024-01-28T19:00:46.872Z,1.00
2024-01-28T19:03:15.218Z,99.90
2024-01-28T19:05:44.625Z,99.90
2024-01-28T19:08:13.146Z,99.90
2024-01-28T19:10:42.495Z,99.90
2024-01-28T19:13:12.169Z,1.00
2024-01-28T19:15:43.955Z,99.90
2024-01-28T19:18:12.097Z,1.00
2024-01-28T19:20:40.134Z,1.00
2024-01-28T19:23:09.268Z,1.00
2024-01-28T19:25:37.742Z,1.00
2024-01-28T19:28:06.081Z,1.00
2024-01-28T19:30:34.100Z,1.00
2024-01-28T19:33:03.511Z,1.00
2024-01-28T19:35:31.481Z,1.00
2024-01-28T19:37:59.460Z,1.00
2024-01-28T19:40:27.494Z,1.00
2024-01-28T19:42:55.528Z,1.00
2024-01-28T19:45:23.576Z,1.00
2024-01-28T19:47:51.690Z,1.00
2024-01-28T19:50:21.125Z,1.00
2024-01-28T19:52:49.086Z,1.00
2024-01-28T19:55:17.047Z,1.00
2024-01-28T19:57:45.092Z,1.00
2024-01-28T20:00:15.392Z,1.00
2024-01-28T20:02:43.631Z,5.30
2024-01-28T20:05:11.608Z,3.80
2024-01-28T20:07:41.094Z,1.00
2024-01-28T20:10:09.277Z,1.00
2024-01-28T20:12:40.275Z,1.00
2024-01-28T20:15:09.116Z,1.00
2024-01-28T20:17:37.250Z,1.00
2024-01-28T20:20:05.682Z,1.00
2024-01-28T20:22:33.708Z,1.00
2024-01-28T20:25:03.231Z,1.00
2024-01-28T20:27:31.310Z,15.70
2024-01-28T20:29:59.327Z,5.00
2024-01-28T20:32:27.286Z,7.40
2024-01-28T20:34:55.483Z,8.40
2024-01-28T20:37:25.074Z,11.80
2024-01-28T20:39:53.215Z,23.20
2024-01-28T20:42:22.693Z,21.40
2024-01-28T20:44:50.697Z,27.00
2024-01-28T20:47:18.941Z,27.20
2024-01-28T20:49:50.222Z,26.10
2024-01-28T20:52:18.342Z,23.10
2024-01-28T20:54:46.367Z,22.10
2024-01-28T20:57:14.376Z,29.80
2024-01-28T20:59:45.148Z,23.10
2024-01-28T21:02:17.166Z,28.80
2024-01-28T21:04:45.818Z,32.30
2024-01-28T21:07:13.926Z,36.30
2024-01-28T21:09:41.998Z,34.50
2024-01-28T21:12:10.373Z,34.30
2024-01-28T21:14:38.443Z,34.70
2024-01-28T21:17:07.831Z,29.80
2024-01-28T21:19:36.040Z,36.10
2024-01-28T21:22:04.342Z,46.30
2024-01-28T21:24:32.368Z,46.20
2024-01-28T21:27:00.369Z,45.90
2024-01-28T21:29:33.162Z,50.00
2024-01-28T21:32:01.245Z,46.10
2024-01-28T21:34:31.478Z,44.40
2024-01-28T21:36:59.747Z,43.30
2024-01-28T21:39:27.865Z,37.20
2024-01-28T21:41:55.899Z,47.70
2024-01-28T21:44:26.120Z,53.60
2024-01-28T21:46:55.497Z,53.10
2024-01-28T21:49:23.732Z,47.90
2024-01-28T21:51:54.547Z,42.50
2024-01-28T21:54:22.592Z,43.80
2024-01-28T21:56:50.543Z,47.50
2024-01-28T21:59:18.814Z,44.90
2024-01-28T22:01:46.798Z,52.40
2024-01-28T22:04:14.934Z,46.30
2024-01-28T22:06:43.004Z,51.90
2024-01-28T22:09:12.607Z,43.80
2024-01-28T22:11:40.896Z,44.20
2024-01-28T22:14:08.928Z,39.40
2024-01-28T22:16:36.859Z,61.50
2024-01-28T22:19:05.839Z,74.30
2024-01-28T22:21:34.002Z,75.10
2024-01-28T22:24:02.566Z,66.00
2024-01-28T22:26:31.905Z,66.60
2024-01-28T22:28:59.873Z,65.50
2024-01-28T22:31:28.630Z,64.00
2024-01-28T22:33:57.624Z,64.70
2024-01-28T22:36:25.872Z,60.90
2024-01-28T22:38:54.553Z,65.90
2024-01-28T22:41:22.522Z,61.40
2024-01-28T22:43:51.892Z,70.60
2024-01-28T22:46:19.911Z,70.80
2024-01-28T22:48:48.118Z,62.10
2024-01-28T22:51:16.272Z,73.10
2024-01-28T22:53:44.632Z,71.40
2024-01-28T22:56:12.574Z,74.10
2024-01-28T22:58:40.628Z,75.00
2024-01-28T23:01:11.249Z,81.30
2024-01-28T23:03:39.450Z,82.00
2024-01-28T23:06:11.217Z,75.30
2024-01-28T23:08:39.267Z,77.90
2024-01-28T23:11:07.978Z,84.20
2024-01-28T23:13:36.909Z,86.40
2024-01-28T23:16:05.568Z,82.50
2024-01-28T23:18:35.331Z,79.40
2024-01-28T23:21:03.379Z,84.10
2024-01-28T23:23:31.533Z,85.30
2024-01-28T23:25:59.453Z,90.30
2024-01-28T23:28:27.611Z,90.40
2024-01-28T23:30:56.038Z,90.70
2024-01-28T23:33:24.212Z,85.90
2024-01-28T23:35:53.718Z,90.30
2024-01-28T23:38:22.074Z,81.90
2024-01-28T23:40:50.750Z,87.90
2024-01-28T23:43:19.201Z,90.50
2024-01-28T23:45:47.185Z,92.70
2024-01-28T23:48:15.235Z,92.30
2024-01-28T23:50:43.254Z,91.80
2024-01-28T23:53:12.585Z,91.90
2024-01-28T23:55:40.594Z,91.80
2024-01-28T23:58:08.593Z,91.20
